createdAt,value
2022-08-02T00:00:59.333Z,18.70
2022-08-02T00:03:27.552Z,18.70
2022-08-02T00:05:55.608Z,18.70
2022-08-02T00:08:23.656Z,18.70
2022-08-02T00:10:51.669Z,18.70
2022-08-02T00:13:21.340Z,18.70
2022-08-02T00:15:49.425Z,18.70
2022-08-02T00:18:17.445Z,18.70
2022-08-02T00:20:45.470Z,18.80
2022-08-02T00:23:13.457Z,18.80
2022-08-02T00:25:54.887Z,18.80
2022-08-02T00:28:27.744Z,18.60
2022-08-02T00:30:56.525Z,18.60
2022-08-02T00:34:27.048Z,18.50
2022-08-02T00:36:12.676Z,18.50
2022-08-02T00:38:40.726Z,18.50
2022-08-02T00:41:12.839Z,18.50
2022-08-02T00:43:42.305Z,18.50
2022-08-02T00:46:10.337Z,18.40
2022-08-02T00:48:41.483Z,18.40
2022-08-02T00:51:11.826Z,18.40
2022-08-02T00:53:40.265Z,18.40
2022-08-02T00:56:08.382Z,18.30
2022-08-02T00:58:36.363Z,18.40
2022-08-02T01:01:05.908Z,18.40
2022-08-02T01:03:33.977Z,18.40
2022-08-02T01:06:17.180Z,18.40
2022-08-02T01:08:45.193Z,18.40
2022-08-02T01:11:13.718Z,18.40
2022-08-02T01:13:41.766Z,18.40
2022-08-02T01:16:13.131Z,18.40
2022-08-02T01:18:43.074Z,18.30
2022-08-02T01:21:15.988Z,18.30
2022-08-02T01:23:52.478Z,18.20
2022-08-02T01:26:32.959Z,18.30
2022-08-02T01:29:05.058Z,18.30
2022-08-02T01:31:34.932Z,18.20
2022-08-02T01:34:05.413Z,18.20
2022-08-02T01:36:36.159Z,18.10
2022-08-02T01:39:05.591Z,18.10
2022-08-02T01:41:34.956Z,18.20
2022-08-02T01:44:05.453Z,18.20
2022-08-02T01:46:34.151Z,18.20
2022-08-02T01:49:04.452Z,18.10
2022-08-02T01:51:55.674Z,18.10
2022-08-02T01:54:24.353Z,18.10
2022-08-02T01:56:53.034Z,18.10
2022-08-02T01:59:23.150Z,18.10
2022-08-02T02:01:52.436Z,18.10
2022-08-02T02:04:22.218Z,18.00
2022-08-02T02:06:50.796Z,18.00
2022-08-02T02:09:19.452Z,18.00
2022-08-02T02:12:13.877Z,17.90
2022-08-02T02:14:38.498Z,18.00
2022-08-02T02:17:07.814Z,18.00
2022-08-02T02:19:37.683Z,18.00
2022-08-02T02:22:05.848Z,18.00
2022-08-02T02:24:35.016Z,17.80
2022-08-02T02:27:05.189Z,17.80
2022-08-02T02:29:34.002Z,17.80
2022-08-02T02:32:05.873Z,17.90
2022-08-02T02:34:35.304Z,17.80
2022-08-02T02:37:04.965Z,17.70
2022-08-02T02:39:33.856Z,17.70
2022-08-02T02:42:03.645Z,17.70
2022-08-02T02:44:32.526Z,17.70
2022-08-02T02:47:00.874Z,17.70
2022-08-02T02:49:33.117Z,17.70
2022-08-02T02:52:01.672Z,17.70
2022-08-02T02:54:34.366Z,17.70
2022-08-02T02:57:03.755Z,17.70
2022-08-02T02:59:32.088Z,17.60
2022-08-02T03:02:00.548Z,17.70
2022-08-02T03:04:55.874Z,17.70
2022-08-02T03:07:18.786Z,17.60
2022-08-02T03:09:53.737Z,17.60
2022-08-02T03:12:24.879Z,17.60
2022-08-02T03:14:56.726Z,17.60
2022-08-02T03:17:24.773Z,17.60
2022-08-02T03:19:54.170Z,17.60
2022-08-02T03:22:22.166Z,17.60
2022-08-02T03:24:50.190Z,17.60
2022-08-02T03:27:18.149Z,17.70
2022-08-02T03:29:47.409Z,17.70
2022-08-02T03:32:15.438Z,17.70
2022-08-02T03:34:43.469Z,17.70
2022-08-02T03:37:13.213Z,17.70
2022-08-02T03:39:42.822Z,17.70
2022-08-02T03:42:21.182Z,17.70
2022-08-02T03:44:50.152Z,17.60
2022-08-02T03:47:18.458Z,17.60
2022-08-02T03:49:47.338Z,17.60
2022-08-02T03:52:16.775Z,17.50
2022-08-02T03:54:45.304Z,17.50
2022-08-02T03:57:14.393Z,17.50
2022-08-02T03:59:43.106Z,17.50
2022-08-02T04:02:11.367Z,17.50
2022-08-02T04:04:39.577Z,17.30
2022-08-02T04:07:07.844Z,17.00
2022-08-02T04:09:37.353Z,17.20
2022-08-02T04:12:05.702Z,17.10
2022-08-02T04:14:36.373Z,17.10
2022-08-02T04:17:06.726Z,17.10
2022-08-02T04:19:37.694Z,17.10
2022-08-02T04:22:05.944Z,17.00
2022-08-02T04:24:39.450Z,17.00
2022-08-02T04:27:49.147Z,17.00
2022-08-02T04:29:56.964Z,17.10
2022-08-02T04:32:25.634Z,17.10
2022-08-02T04:35:18.189Z,17.10
2022-08-02T04:38:09.833Z,17.10
2022-08-02T04:40:31.460Z,17.20
2022-08-02T04:42:59.490Z,17.20
2022-08-02T04:45:28.098Z,17.10
2022-08-02T04:48:04.548Z,17.20
2022-08-02T04:50:33.508Z,17.20
2022-08-02T04:53:01.548Z,17.30
2022-08-02T04:55:30.116Z,17.40
2022-08-02T04:58:03.516Z,17.50
2022-08-02T05:00:32.756Z,17.60
2022-08-02T05:03:01.109Z,17.70
2022-08-02T05:05:29.505Z,17.80
2022-08-02T05:07:57.750Z,17.70
2022-08-02T05:10:25.836Z,18.00
2022-08-02T05:12:53.798Z,18.10
2022-08-02T05:15:23.261Z,18.20
2022-08-02T05:17:51.291Z,18.20
2022-08-02T05:20:19.890Z,18.30
2022-08-02T05:22:48.233Z,18.30
2022-08-02T05:25:16.442Z,18.40
2022-08-02T05:27:44.507Z,18.40
2022-08-02T05:30:12.918Z,18.50
2022-08-02T05:32:46.036Z,18.50
2022-08-02T05:35:14.128Z,18.60
2022-08-02T05:37:43.119Z,18.60
2022-08-02T05:40:13.114Z,18.70
2022-08-02T05:42:41.573Z,18.80
2022-08-02T05:45:09.980Z,18.80
2022-08-02T05:47:38.324Z,19.00
2022-08-02T05:50:09.210Z,19.00
2022-08-02T05:52:42.284Z,19.30
2022-08-02T05:55:14.288Z,20.10
2022-08-02T05:57:48.351Z,21.00
2022-08-02T06:00:16.805Z,21.80
2022-08-02T06:03:01.132Z,22.60
2022-08-02T06:05:33.358Z,23.40
2022-08-02T06:08:01.714Z,23.90
2022-08-02T06:10:30.251Z,24.20
2022-08-02T06:13:06.793Z,24.30
2022-08-02T06:15:35.014Z,24.70
2022-08-02T06:18:09.155Z,24.40
2022-08-02T06:20:38.517Z,24.70
2022-08-02T06:23:10.767Z,24.80
2022-08-02T06:25:50.636Z,25.00
2022-08-02T06:28:19.994Z,25.50
2022-08-02T06:30:48.220Z,25.80
2022-08-02T06:33:16.359Z,25.70
2022-08-02T06:35:47.153Z,25.40
2022-08-02T06:38:19.231Z,25.10
2022-08-02T06:40:49.442Z,25.00
2022-08-02T06:43:19.501Z,25.20
2022-08-02T06:45:47.473Z,24.70
2022-08-02T06:48:15.808Z,24.70
2022-08-02T06:50:44.400Z,25.00
2022-08-02T06:53:13.878Z,25.20
2022-08-02T06:55:44.398Z,25.30
2022-08-02T06:58:12.866Z,26.00
2022-08-02T07:00:40.980Z,26.00
2022-08-02T07:03:09.069Z,26.50
2022-08-02T07:05:37.046Z,26.50
2022-08-02T07:08:05.338Z,26.70
2022-08-02T07:10:34.706Z,27.70
2022-08-02T07:13:02.711Z,28.20
2022-08-02T07:15:30.763Z,28.80
2022-08-02T07:17:58.754Z,29.50
2022-08-02T07:20:26.939Z,29.90
2022-08-02T07:22:54.910Z,29.40
2022-08-02T07:25:22.946Z,29.40
2022-08-02T07:27:52.574Z,30.00
2022-08-02T07:30:24.523Z,29.90
2022-08-02T07:32:52.490Z,30.30
2022-08-02T07:35:21.259Z,30.10
2022-08-02T07:37:54.659Z,30.00
2022-08-02T07:40:24.315Z,29.80
2022-08-02T07:42:59.318Z,30.10
2022-08-02T07:45:31.708Z,30.60
2022-08-02T07:47:59.734Z,31.00
2022-08-02T07:50:28.589Z,31.30
2022-08-02T07:52:57.570Z,31.00
2022-08-02T07:55:35.202Z,30.50
2022-08-02T07:58:11.243Z,30.30
2022-08-02T08:00:42.006Z,29.90
2022-08-02T08:03:09.967Z,29.20
2022-08-02T08:05:38.107Z,29.40
2022-08-02T08:08:06.462Z,29.60
2022-08-02T08:10:34.735Z,30.60
2022-08-02T08:13:02.756Z,30.60
2022-08-02T08:15:32.114Z,29.80
2022-08-02T08:18:00.084Z,29.40
2022-08-02T08:20:28.081Z,29.60
2022-08-02T08:22:56.081Z,30.00
2022-08-02T08:25:24.058Z,30.60
2022-08-02T08:27:55.297Z,31.10
2022-08-02T08:30:23.683Z,31.80
2022-08-02T08:32:53.041Z,31.70
2022-08-02T08:35:21.037Z,31.40
2022-08-02T08:37:49.400Z,31.90
2022-08-02T08:40:19.570Z,33.00
2022-08-02T08:42:47.867Z,33.40
2022-08-02T08:45:17.944Z,33.40
2022-08-02T08:47:49.049Z,33.40
2022-08-02T08:50:24.900Z,34.70
2022-08-02T08:52:55.643Z,35.30
2022-08-02T08:55:24.090Z,35.60
2022-08-02T08:57:52.383Z,35.40
2022-08-02T09:00:20.458Z,35.00
2022-08-02T09:02:48.490Z,35.00
2022-08-02T09:05:17.688Z,35.20
2022-08-02T09:07:49.737Z,35.40
2022-08-02T09:10:33.758Z,35.60
2022-08-02T09:13:38.189Z,35.00
2022-08-02T09:15:57.901Z,34.50
2022-08-02T09:18:32.528Z,35.30
2022-08-02T09:21:02.267Z,35.50
2022-08-02T09:23:37.273Z,36.20
2022-08-02T09:26:07.757Z,36.70
2022-08-02T09:28:37.186Z,37.50
2022-08-02T09:31:06.362Z,38.00
2022-08-02T09:33:34.887Z,38.50
2022-08-02T09:36:08.099Z,38.80
2022-08-02T09:38:38.064Z,38.40
2022-08-02T09:41:06.834Z,38.80
2022-08-02T09:43:39.475Z,39.20
2022-08-02T09:46:29.454Z,39.20
2022-08-02T09:48:58.133Z,39.20
2022-08-02T09:51:27.168Z,39.20
2022-08-02T09:54:07.971Z,39.50
2022-08-02T09:56:47.342Z,39.80
2022-08-02T09:59:16.139Z,39.70
2022-08-02T10:01:50.606Z,39.90
2022-08-02T10:04:27.289Z,39.80
2022-08-02T10:06:55.445Z,40.00
2022-08-02T10:09:24.945Z,39.80
2022-08-02T10:11:53.955Z,40.00
2022-08-02T10:14:23.625Z,39.80
2022-08-02T10:16:51.818Z,39.80
2022-08-02T10:19:59.641Z,40.10
2022-08-02T10:22:11.100Z,39.90
2022-08-02T10:24:48.127Z,39.80
2022-08-02T10:27:17.709Z,39.90
2022-08-02T10:29:55.086Z,39.80
2022-08-02T10:32:27.908Z,40.00
2022-08-02T10:34:57.789Z,40.10
2022-08-02T10:37:31.042Z,40.10
2022-08-02T10:40:00.531Z,40.20
2022-08-02T10:42:48.062Z,40.50
2022-08-02T10:45:16.783Z,40.40
2022-08-02T10:48:06.202Z,40.50
2022-08-02T10:50:53.065Z,40.50
2022-08-02T10:53:25.118Z,40.70
2022-08-02T10:55:55.300Z,41.10
2022-08-02T10:58:26.224Z,40.90
2022-08-02T11:00:57.837Z,40.60
2022-08-02T11:03:41.836Z,41.00
2022-08-02T11:06:25.814Z,41.10
2022-08-02T11:09:12.891Z,41.20
2022-08-02T11:12:00.913Z,41.30
2022-08-02T11:14:29.170Z,41.00
2022-08-02T11:17:06.969Z,41.00
2022-08-02T11:19:35.955Z,40.70
2022-08-02T11:22:12.289Z,41.20
2022-08-02T11:24:41.039Z,41.10
2022-08-02T11:27:13.486Z,41.10
2022-08-02T11:29:42.926Z,41.10
2022-08-02T11:32:17.256Z,41.10
2022-08-02T11:34:46.887Z,41.20
2022-08-02T11:37:15.008Z,41.20
2022-08-02T11:39:51.258Z,41.10
2022-08-02T11:42:20.654Z,41.20
2022-08-02T11:44:49.326Z,41.30
2022-08-02T11:47:17.328Z,41.50
2022-08-02T11:49:45.598Z,41.70
2022-08-02T11:52:13.973Z,41.60
2022-08-02T11:54:43.668Z,41.60
2022-08-02T11:57:15.574Z,41.50
2022-08-02T11:59:49.194Z,41.20
2022-08-02T12:02:17.744Z,41.10
2022-08-02T12:04:52.838Z,41.00
2022-08-02T12:07:34.366Z,40.90
2022-08-02T12:10:04.515Z,40.70
2022-08-02T12:12:32.564Z,40.30
2022-08-02T12:15:01.957Z,40.20
2022-08-02T12:17:47.752Z,40.10
2022-08-02T12:20:17.319Z,39.80
2022-08-02T12:22:45.553Z,39.80
2022-08-02T12:25:33.649Z,39.90
2022-08-02T12:28:20.497Z,39.70
2022-08-02T12:30:56.756Z,39.70
2022-08-02T12:33:25.450Z,39.70
2022-08-02T12:35:53.838Z,39.80
2022-08-02T12:38:22.305Z,39.60
2022-08-02T12:40:50.808Z,39.50
2022-08-02T12:43:19.947Z,39.60
2022-08-02T12:45:49.748Z,39.40
2022-08-02T12:48:36.626Z,39.70
2022-08-02T12:51:19.591Z,39.70
2022-08-02T12:53:47.599Z,40.00
2022-08-02T12:56:29.144Z,40.20
2022-08-02T12:58:57.199Z,39.90
2022-08-02T13:01:26.658Z,39.90
2022-08-02T13:04:10.963Z,39.90
2022-08-02T13:06:43.936Z,39.80
2022-08-02T13:09:13.908Z,40.00
2022-08-02T13:11:43.229Z,40.00
2022-08-02T13:14:12.096Z,39.90
2022-08-02T13:16:40.180Z,40.10
2022-08-02T13:19:09.629Z,40.00
2022-08-02T13:21:41.502Z,40.00
2022-08-02T13:24:41.053Z,40.10
2022-08-02T13:27:13.598Z,40.10
2022-08-02T13:29:41.595Z,40.00
2022-08-02T13:32:10.106Z,39.90
2022-08-02T13:34:40.176Z,39.90
2022-08-02T13:37:08.235Z,39.80
2022-08-02T13:39:36.404Z,39.30
2022-08-02T13:42:05.873Z,38.70
2022-08-02T13:44:34.059Z,38.20
2022-08-02T13:47:02.389Z,37.50
2022-08-02T13:49:49.871Z,37.20
2022-08-02T13:52:19.779Z,36.70
2022-08-02T13:54:47.824Z,36.10
2022-08-02T13:57:15.829Z,35.60
2022-08-02T13:59:55.926Z,35.00
2022-08-02T14:02:26.818Z,34.80
2022-08-02T14:04:54.803Z,34.70
2022-08-02T14:07:24.227Z,34.40
2022-08-02T14:09:52.563Z,34.10
2022-08-02T14:12:20.706Z,34.00
2022-08-02T14:14:48.681Z,33.90
2022-08-02T14:17:18.933Z,33.80
2022-08-02T14:19:47.076Z,33.60
2022-08-02T14:22:15.083Z,33.50
2022-08-02T14:24:44.543Z,33.40
2022-08-02T14:27:13.590Z,33.40
2022-08-02T14:29:41.677Z,33.30
2022-08-02T14:32:10.013Z,33.30
2022-08-02T14:34:38.371Z,33.20
2022-08-02T14:37:06.435Z,33.10
2022-08-02T14:39:42.804Z,33.10
2022-08-02T14:42:23.914Z,33.10
2022-08-02T14:44:52.006Z,33.00
2022-08-02T14:47:19.987Z,33.00
2022-08-02T14:49:50.261Z,32.80
2022-08-02T14:52:19.566Z,32.70
2022-08-02T14:54:47.590Z,32.60
2022-08-02T14:57:15.848Z,32.60
2022-08-02T14:59:45.271Z,32.60
2022-08-02T15:02:14.189Z,32.60
2022-08-02T15:04:43.793Z,32.60
2022-08-02T15:07:12.590Z,32.60
2022-08-02T15:09:40.731Z,32.60
2022-08-02T15:12:09.500Z,32.70
2022-08-02T15:14:37.502Z,32.70
2022-08-02T15:17:07.212Z,32.50
2022-08-02T15:19:57.709Z,32.50
2022-08-02T15:22:23.397Z,32.50
2022-08-02T15:24:52.143Z,32.40
2022-08-02T15:27:20.218Z,32.40
2022-08-02T15:29:49.161Z,32.40
2022-08-02T15:32:19.770Z,32.40
2022-08-02T15:34:47.980Z,32.30
2022-08-02T15:37:16.163Z,32.30
2022-08-02T15:39:44.206Z,32.30
2022-08-02T15:42:12.600Z,32.20
2022-08-02T15:44:41.047Z,32.20
2022-08-02T15:47:09.105Z,32.30
2022-08-02T15:49:41.610Z,32.30
2022-08-02T15:52:11.412Z,32.20
2022-08-02T15:54:39.679Z,32.10
2022-08-02T15:57:07.751Z,32.00
2022-08-02T15:59:35.781Z,31.90
2022-08-02T16:02:04.521Z,31.80
2022-08-02T16:04:33.117Z,31.80
2022-08-02T16:07:02.608Z,31.80
2022-08-02T16:09:30.610Z,31.80
2022-08-02T16:11:58.629Z,31.90
2022-08-02T16:14:26.758Z,31.90
2022-08-02T16:16:56.172Z,31.80
2022-08-02T16:19:46.007Z,31.70
2022-08-02T16:22:14.116Z,31.60
2022-08-02T16:24:42.421Z,31.40
2022-08-02T16:27:10.489Z,31.30
2022-08-02T16:29:38.538Z,31.20
2022-08-02T16:32:07.091Z,31.20
2022-08-02T16:34:50.709Z,31.20
2022-08-02T16:37:24.673Z,31.20
2022-08-02T16:39:52.757Z,31.20
2022-08-02T16:42:25.073Z,31.20
2022-08-02T16:44:54.878Z,31.30
2022-08-02T16:47:42.837Z,31.30
2022-08-02T16:50:11.485Z,31.40
2022-08-02T16:52:41.251Z,31.40
2022-08-02T16:55:11.123Z,31.40
2022-08-02T16:57:42.681Z,31.40
2022-08-02T17:00:12.589Z,31.30
2022-08-02T17:02:40.618Z,31.30
2022-08-02T17:05:13.917Z,31.30
2022-08-02T17:08:10.379Z,31.30
2022-08-02T17:10:33.586Z,31.30
2022-08-02T17:13:11.434Z,31.30
2022-08-02T17:16:00.980Z,31.20
2022-08-02T17:18:28.503Z,31.20
2022-08-02T17:20:56.577Z,31.20
2022-08-02T17:24:05.624Z,31.00
2022-08-02T17:26:14.396Z,31.10
2022-08-02T17:29:06.945Z,30.90
2022-08-02T17:31:43.115Z,31.00
2022-08-02T17:34:16.605Z,31.00
2022-08-02T17:36:44.916Z,30.90
2022-08-02T17:39:19.324Z,30.80
2022-08-02T17:41:49.009Z,30.90
2022-08-02T17:44:37.196Z,30.70
2022-08-02T17:47:07.260Z,30.60
2022-08-02T17:49:43.935Z,30.60
2022-08-02T17:52:50.272Z,30.50
2022-08-02T17:55:05.653Z,30.40
2022-08-02T17:57:56.332Z,30.30
2022-08-02T18:00:21.763Z,30.20
2022-08-02T18:02:50.583Z,30.10
2022-08-02T18:05:23.406Z,30.00
2022-08-02T18:08:07.642Z,29.80
2022-08-02T18:10:37.231Z,29.70
2022-08-02T18:13:05.450Z,29.60
2022-08-02T18:15:33.519Z,29.50
2022-08-02T18:18:01.793Z,29.40
2022-08-02T18:20:29.853Z,29.30
2022-08-02T18:22:58.740Z,29.20
2022-08-02T18:25:36.972Z,29.00
2022-08-02T18:28:14.122Z,28.90
2022-08-02T18:30:42.182Z,28.70
2022-08-02T18:33:59.555Z,28.60
2022-08-02T18:35:58.383Z,28.50
2022-08-02T18:38:28.417Z,28.30
2022-08-02T18:40:58.784Z,28.20
2022-08-02T18:43:29.497Z,28.10
2022-08-02T18:46:07.245Z,27.80
2022-08-02T18:48:46.254Z,27.80
2022-08-02T18:51:19.177Z,27.70
2022-08-02T18:53:51.278Z,27.50
2022-08-02T18:56:24.787Z,27.30
2022-08-02T18:58:55.230Z,27.20
2022-08-02T19:01:31.930Z,27.10
2022-08-02T19:04:01.532Z,27.00
2022-08-02T19:06:30.125Z,26.90
2022-08-02T19:09:05.197Z,26.80
2022-08-02T19:11:40.796Z,26.70
2022-08-02T19:14:10.883Z,26.50
2022-08-02T19:16:38.874Z,26.30
2022-08-02T19:19:06.926Z,26.10
2022-08-02T19:22:17.807Z,26.00
2022-08-02T19:24:23.027Z,25.80
2022-08-02T19:26:55.131Z,25.50
2022-08-02T19:29:25.067Z,25.50
2022-08-02T19:32:42.208Z,25.30
2022-08-02T19:35:01.110Z,25.10
2022-08-02T19:40:20.729Z,24.80
2022-08-02T19:44:23.979Z,24.70
2022-08-02T19:45:51.051Z,24.50
2022-08-02T19:48:24.186Z,24.40
2022-08-02T19:50:56.178Z,24.30
2022-08-02T19:53:29.099Z,24.20
2022-08-02T19:56:20.516Z,24.10
2022-08-02T19:58:49.714Z,23.90
2022-08-02T20:01:28.425Z,23.90
2022-08-02T20:04:06.330Z,23.80
2022-08-02T20:06:34.449Z,23.80
2022-08-02T20:09:03.494Z,23.70
2022-08-02T20:11:34.755Z,23.60
2022-08-02T20:14:03.938Z,23.60
2022-08-02T20:16:33.440Z,23.50
2022-08-02T20:19:02.509Z,23.40
2022-08-02T20:21:36.519Z,23.40
2022-08-02T20:24:06.386Z,23.30
2022-08-02T20:26:35.340Z,23.20
2022-08-02T20:29:04.026Z,23.10
2022-08-02T20:31:34.443Z,23.10
2022-08-02T20:34:02.839Z,23.10
2022-08-02T20:36:30.985Z,23.10
2022-08-02T20:38:58.962Z,23.00
2022-08-02T20:41:37.036Z,23.00
2022-08-02T20:44:15.331Z,23.00
2022-08-02T20:46:45.833Z,22.90
2022-08-02T20:49:21.535Z,22.90
2022-08-02T20:51:53.932Z,22.80
2022-08-02T20:54:22.621Z,22.80
2022-08-02T20:56:51.096Z,22.80
2022-08-02T20:59:21.261Z,22.70
2022-08-02T21:01:56.935Z,22.70
2022-08-02T21:04:26.400Z,22.60
2022-08-02T21:06:55.917Z,22.70
2022-08-02T21:09:52.856Z,22.70
2022-08-02T21:12:12.929Z,22.60
2022-08-02T21:14:41.091Z,22.60
2022-08-02T21:17:11.280Z,22.60
2022-08-02T21:19:45.984Z,22.40
2022-08-02T21:22:14.621Z,22.50
2022-08-02T21:24:43.171Z,22.50
2022-08-02T21:27:52.954Z,22.50
2022-08-02T21:30:02.709Z,22.40
2022-08-02T21:32:32.477Z,22.40
2022-08-02T21:35:01.733Z,22.50
2022-08-02T21:37:32.978Z,22.40
2022-08-02T21:40:01.288Z,22.40
2022-08-02T21:42:29.343Z,22.40
2022-08-02T21:44:57.976Z,22.40
2022-08-02T21:47:26.817Z,22.50
2022-08-02T21:50:10.052Z,22.50
2022-08-02T21:52:52.110Z,22.50
2022-08-02T21:55:24.305Z,22.50
2022-08-02T21:58:09.511Z,22.50
2022-08-02T22:00:38.061Z,22.50
2022-08-02T22:03:22.262Z,22.50
2022-08-02T22:05:52.327Z,22.50
2022-08-02T22:08:21.777Z,22.40
2022-08-02T22:11:03.927Z,22.40
2022-08-02T22:13:38.590Z,22.40
2022-08-02T22:16:15.576Z,22.40
2022-08-02T22:18:50.389Z,22.40
2022-08-02T22:21:22.780Z,22.40
2022-08-02T22:23:51.468Z,22.30
2022-08-02T22:26:19.812Z,22.20
2022-08-02T22:28:52.116Z,22.20
2022-08-02T22:31:41.841Z,22.20
2022-08-02T22:34:26.810Z,22.10
2022-08-02T22:36:59.257Z,22.00
2022-08-02T22:39:28.561Z,22.00
2022-08-02T22:42:06.350Z,22.00
2022-08-02T22:44:35.409Z,21.90
2022-08-02T22:47:07.007Z,21.90
2022-08-02T22:49:45.308Z,21.80
2022-08-02T22:52:21.530Z,21.80
2022-08-02T22:54:50.947Z,21.70
2022-08-02T22:57:24.984Z,21.70
2022-08-02T22:59:05.946Z,25.00
2022-08-02T22:59:59.230Z,21.70
2022-08-02T23:02:27.379Z,21.60
2022-08-02T23:04:55.761Z,21.60
2022-08-02T23:07:25.201Z,21.60
2022-08-02T23:09:53.918Z,21.60
2022-08-02T23:12:21.916Z,21.50
2022-08-02T23:14:50.363Z,21.40
2022-08-02T23:17:35.966Z,21.40
2022-08-02T23:20:04.909Z,21.30
2022-08-02T23:22:36.030Z,21.20
2022-08-02T23:25:04.947Z,21.20
2022-08-02T23:27:33.693Z,21.10
2022-08-02T23:30:02.132Z,21.10
2022-08-02T23:32:30.411Z,21.10
2022-08-02T23:34:58.996Z,21.10
2022-08-02T23:37:27.334Z,21.10
2022-08-02T23:39:56.776Z,21.10
2022-08-02T23:42:25.651Z,21.10
2022-08-02T23:44:53.736Z,21.00
2022-08-02T23:47:21.809Z,21.00
2022-08-02T23:49:49.814Z,21.10
2022-08-02T23:52:18.462Z,21.10
2022-08-02T23:54:46.696Z,21.10
2022-08-02T23:57:20.461Z,21.20
2022-08-02T23:59:50.160Z,21.20
